createdAt,value
2018-04-28T00:00:46.579Z,9.33
2018-04-28T00:03:15.067Z,11.83
2018-04-28T00:05:43.437Z,8.17
2018-04-28T00:08:11.957Z,11.60
2018-04-28T00:10:40.403Z,11.17
2018-04-28T00:13:09.295Z,12.83
2018-04-28T00:15:38.574Z,12.63
2018-04-28T00:18:06.926Z,12.67
2018-04-28T00:20:35.319Z,10.30
2018-04-28T00:23:04.484Z,9.40
2018-04-28T00:25:39.071Z,13.33
2018-04-28T00:28:20.582Z,10.00
2018-04-28T00:30:57.744Z,8.20
2018-04-28T00:33:34.090Z,14.90
2018-04-28T00:36:18.515Z,12.67
2018-04-28T00:38:47.063Z,9.83
2018-04-28T00:41:15.728Z,13.07
2018-04-28T00:43:44.158Z,12.80
2018-04-28T00:46:34.160Z,15.37
2018-04-28T00:49:03.298Z,10.53
2018-04-28T00:51:38.240Z,10.63
2018-04-28T00:54:21.660Z,10.97
2018-04-28T00:56:52.081Z,9.90
2018-04-28T00:59:21.889Z,13.57
2018-04-28T01:01:52.879Z,12.07
2018-04-28T01:04:22.341Z,12.10
2018-04-28T01:06:50.677Z,11.63
2018-04-28T01:09:19.793Z,12.57
2018-04-28T01:11:49.108Z,10.70
2018-04-28T01:14:19.145Z,11.77
2018-04-28T01:16:48.073Z,12.70
2018-04-28T01:19:21.273Z,14.03
2018-04-28T01:21:49.629Z,12.23
2018-04-28T01:24:28.800Z,12.13
2018-04-28T01:36:34.649Z,13.00
2018-04-28T01:39:17.653Z,11.37
2018-04-28T01:42:15.373Z,9.40
2018-04-28T01:44:50.316Z,13.77
2018-04-28T01:47:22.529Z,11.43
2018-04-28T01:49:56.568Z,13.23
2018-04-28T01:52:40.663Z,10.53
2018-04-28T01:55:15.836Z,12.27
2018-04-28T01:57:59.837Z,9.33
2018-04-28T02:03:39.358Z,12.07
2018-04-28T02:06:16.561Z,13.53
2018-04-28T02:08:46.621Z,12.53
2018-04-28T02:11:28.623Z,11.20
2018-04-28T02:13:57.885Z,15.50
2018-04-28T02:19:37.046Z,13.17
2018-04-28T02:22:23.030Z,12.50
2018-04-28T02:25:03.362Z,12.63
2018-04-28T02:27:50.085Z,13.13
2018-04-28T02:30:19.256Z,13.60
2018-04-28T02:32:51.551Z,11.27
2018-04-28T02:35:21.180Z,11.20
2018-04-28T02:37:50.988Z,10.43
2018-04-28T02:40:21.790Z,8.87
2018-04-28T02:42:51.191Z,11.10
2018-04-28T02:45:19.527Z,12.30
2018-04-28T02:47:47.875Z,9.40
2018-04-28T02:50:24.578Z,11.60
2018-04-28T02:53:04.943Z,9.40
2018-04-28T02:56:03.034Z,9.23
2018-04-28T02:58:35.899Z,9.50
2018-04-28T03:01:06.897Z,13.97
2018-04-28T03:03:37.969Z,14.37
2018-04-28T03:06:07.036Z,8.37
2018-04-28T03:08:46.176Z,11.40
2018-04-28T03:11:16.045Z,7.13
2018-04-28T03:13:49.154Z,10.93
2018-04-28T03:19:16.963Z,10.13
2018-04-28T03:21:48.264Z,9.20
2018-04-28T03:27:24.819Z,8.50
2018-04-28T03:29:53.901Z,7.80
2018-04-28T03:35:35.903Z,11.27
2018-04-28T03:38:14.952Z,11.33
2018-04-28T03:40:44.082Z,10.53
2018-04-28T03:46:32.435Z,9.43
2018-04-28T03:49:21.992Z,7.57
2018-04-28T03:51:56.445Z,9.23
2018-04-28T03:54:49.857Z,10.33
2018-04-28T03:57:39.041Z,10.00
2018-04-28T04:00:20.241Z,6.93
2018-04-28T04:03:00.247Z,9.87
2018-04-28T04:05:35.006Z,11.23
2018-04-28T04:08:07.174Z,7.03
2018-04-28T04:13:41.521Z,8.52
2018-04-28T04:19:14.502Z,8.57
2018-04-28T04:21:50.838Z,7.23
2018-04-28T04:24:26.710Z,10.03
2018-04-28T04:27:01.790Z,12.57
2018-04-28T04:29:39.286Z,6.43
2018-04-28T04:32:15.427Z,7.67
2018-04-28T04:34:51.542Z,7.07
2018-04-28T04:37:24.627Z,6.20
2018-04-28T04:39:53.646Z,10.13
2018-04-28T04:42:34.488Z,5.57
2018-04-28T04:45:10.203Z,6.30
2018-04-28T04:47:50.576Z,8.77
2018-04-28T04:56:43.494Z,6.43
2018-04-28T04:59:23.555Z,8.43
2018-04-28T05:02:00.638Z,10.40
2018-04-28T05:04:40.935Z,5.90
2018-04-28T05:07:12.230Z,7.57
2018-04-28T05:09:50.066Z,6.20
2018-04-28T05:12:29.089Z,6.20
2018-04-28T05:15:14.245Z,6.60
2018-04-28T05:18:06.323Z,4.47
2018-04-28T05:23:45.972Z,8.83
2018-04-28T05:32:42.362Z,9.20
2018-04-28T05:35:18.542Z,9.53
2018-04-28T05:37:57.012Z,5.53
2018-04-28T05:43:28.340Z,5.93
2018-04-28T05:46:09.496Z,11.57
2018-04-28T05:48:43.672Z,10.77
2018-04-28T05:51:19.718Z,7.23
2018-04-28T05:57:13.485Z,8.43
2018-04-28T06:09:13.889Z,8.17
2018-04-28T06:20:52.911Z,6.20
2018-04-28T06:23:21.391Z,4.77
2018-04-28T06:25:49.751Z,7.77
2018-04-28T06:28:18.112Z,6.60
2018-04-28T06:30:46.493Z,5.17
2018-04-28T06:33:14.939Z,3.63
2018-04-28T06:35:43.292Z,8.53
2018-04-28T06:38:12.015Z,8.07
2018-04-28T06:40:40.940Z,6.67
2018-04-28T06:43:09.266Z,6.83
2018-04-28T06:45:37.659Z,6.43
2018-04-28T06:48:06.044Z,7.70
2018-04-28T06:50:35.207Z,5.87
2018-04-28T06:53:03.939Z,9.07
2018-04-28T06:55:32.318Z,5.90
2018-04-28T06:58:01.021Z,9.87
2018-04-28T07:00:29.364Z,5.63
2018-04-28T07:02:58.615Z,6.63
2018-04-28T07:05:27.520Z,7.40
2018-04-28T07:07:55.969Z,7.20
2018-04-28T07:10:24.462Z,8.10
2018-04-28T07:12:52.964Z,7.23
2018-04-28T07:15:21.538Z,6.47
2018-04-28T07:17:50.112Z,8.77
2018-04-28T07:20:18.467Z,12.97
2018-04-28T07:22:46.950Z,10.40
2018-04-28T07:25:15.330Z,8.07
2018-04-28T07:27:43.733Z,8.50
2018-04-28T07:30:12.981Z,6.27
2018-04-28T07:32:41.336Z,5.10
2018-04-28T07:35:09.686Z,9.37
2018-04-28T07:37:38.311Z,7.27
2018-04-28T07:40:06.730Z,10.87
2018-04-28T07:42:35.071Z,6.10
2018-04-28T07:45:04.189Z,6.87
2018-04-28T07:47:32.726Z,6.77
2018-04-28T07:50:01.059Z,9.40
2018-04-28T07:52:29.562Z,7.30
2018-04-28T07:54:57.914Z,6.23
2018-04-28T07:57:26.298Z,7.43
2018-04-28T07:59:54.725Z,8.50
2018-04-28T08:02:23.270Z,9.00
2018-04-28T08:04:51.667Z,6.90
2018-04-28T08:07:20.019Z,9.87
2018-04-28T08:09:48.499Z,8.63
2018-04-28T08:12:16.927Z,7.27
2018-04-28T08:14:46.145Z,7.83
2018-04-28T08:17:14.487Z,7.90
2018-04-28T08:19:42.956Z,6.93
2018-04-28T08:22:11.363Z,9.57
2018-04-28T08:24:39.731Z,8.37
2018-04-28T08:27:08.096Z,10.93
2018-04-28T08:29:36.463Z,11.63
2018-04-28T08:32:04.795Z,8.60
2018-04-28T08:34:33.950Z,11.47
2018-04-28T08:37:02.349Z,6.87
2018-04-28T08:39:30.788Z,7.87
2018-04-28T08:41:59.183Z,8.03
2018-04-28T08:44:28.536Z,10.17
2018-04-28T08:46:56.976Z,10.80
2018-04-28T08:49:25.456Z,8.67
2018-04-28T08:51:54.688Z,8.17
2018-04-28T08:54:23.142Z,8.27
2018-04-28T08:56:51.507Z,6.20
2018-04-28T08:59:19.846Z,8.90
2018-04-28T09:01:49.084Z,11.63
2018-04-28T09:04:17.490Z,11.80
2018-04-28T09:06:45.996Z,9.73
2018-04-28T09:09:14.426Z,8.10
2018-04-28T09:11:43.133Z,11.03
2018-04-28T09:14:11.491Z,9.53
2018-04-28T09:16:39.885Z,10.03
2018-04-28T09:19:08.268Z,11.57
2018-04-28T09:21:36.615Z,11.80
2018-04-28T09:24:05.744Z,11.00
2018-04-28T09:26:34.073Z,9.63
2018-04-28T09:29:03.184Z,9.80
2018-04-28T09:31:31.596Z,14.17
2018-04-28T09:33:59.939Z,15.43
2018-04-28T09:36:29.075Z,8.20
2018-04-28T09:38:57.431Z,9.53
2018-04-28T09:41:25.842Z,11.60
2018-04-28T09:43:54.195Z,9.80
2018-04-28T09:46:22.622Z,10.60
2018-04-28T09:48:50.944Z,10.17
2018-04-28T09:51:19.300Z,8.57
2018-04-28T09:53:48.429Z,10.50
2018-04-28T09:56:16.778Z,7.97
2018-04-28T09:58:45.916Z,8.97
2018-04-28T10:01:20.072Z,9.87
2018-04-28T10:03:54.322Z,8.77
2018-04-28T10:06:22.670Z,5.97
2018-04-28T10:08:51.114Z,9.57
2018-04-28T10:11:19.516Z,8.63
2018-04-28T10:13:47.958Z,10.57
2018-04-28T10:16:16.327Z,12.37
2018-04-28T10:18:44.704Z,11.53
2018-04-28T10:21:13.042Z,10.83
2018-04-28T10:23:41.495Z,5.57
2018-04-28T10:26:10.306Z,7.30
2018-04-28T10:28:38.746Z,6.55
2018-04-28T10:31:07.175Z,5.60
2018-04-28T10:33:36.103Z,11.57
2018-04-28T10:36:04.461Z,10.10
2018-04-28T10:38:33.630Z,10.13
2018-04-28T10:41:02.187Z,7.23
2018-04-28T10:43:30.626Z,9.80
2018-04-28T10:45:58.946Z,8.90
2018-04-28T10:48:27.326Z,10.87
2018-04-28T10:50:55.730Z,8.90
2018-04-28T10:53:24.074Z,8.07
2018-04-28T10:55:52.423Z,7.63
2018-04-28T10:58:21.551Z,6.30
2018-04-28T11:00:50.807Z,10.23
2018-04-28T11:03:20.823Z,10.13
2018-04-28T11:05:49.251Z,9.63
2018-04-28T11:08:17.627Z,6.30
2018-04-28T11:10:45.987Z,5.30
2018-04-28T11:13:14.494Z,9.47
2018-04-28T11:15:43.718Z,10.30
2018-04-28T11:18:12.816Z,11.87
2018-04-28T11:20:42.016Z,8.33
2018-04-28T11:23:10.525Z,9.30
2018-04-28T11:25:39.035Z,7.87
2018-04-28T11:28:08.085Z,10.23
2018-04-28T11:30:36.576Z,10.07
2018-04-28T11:33:05.155Z,12.17
2018-04-28T11:35:33.499Z,9.13
2018-04-28T11:38:01.904Z,11.20
2018-04-28T11:40:30.409Z,6.17
2018-04-28T11:42:59.640Z,9.30
2018-04-28T11:45:28.037Z,10.57
2018-04-28T11:47:56.442Z,10.00
2018-04-28T11:50:24.881Z,9.60
2018-04-28T11:52:53.398Z,5.03
2018-04-28T11:55:21.823Z,5.57
2018-04-28T11:57:51.031Z,8.67
2018-04-28T12:00:20.141Z,10.37
2018-04-28T12:02:48.528Z,11.00
2018-04-28T12:05:17.224Z,6.77
2018-04-28T12:07:46.103Z,7.03
2018-04-28T12:10:14.470Z,7.50
2018-04-28T12:12:42.941Z,7.20
2018-04-28T12:15:11.228Z,8.63
2018-04-28T12:17:39.732Z,7.67
2018-04-28T12:20:08.115Z,7.50
2018-04-28T12:22:36.688Z,5.73
2018-04-28T12:25:05.071Z,7.55
2018-04-28T12:27:33.555Z,7.87
2018-04-28T12:30:02.035Z,7.10
2018-04-28T12:32:30.640Z,5.60
2018-04-28T12:34:59.034Z,4.63
2018-04-28T12:37:28.078Z,7.00
2018-04-28T12:39:57.270Z,7.07
2018-04-28T12:42:26.390Z,6.13
2018-04-28T12:44:54.728Z,4.57
2018-04-28T12:47:23.091Z,7.60
2018-04-28T12:49:51.545Z,7.53
2018-04-28T12:52:20.100Z,5.35
2018-04-28T12:54:48.503Z,6.03
2018-04-28T12:57:16.908Z,6.20
2018-04-28T12:59:45.257Z,4.03
2018-04-28T13:02:13.684Z,5.32
2018-04-28T13:04:42.795Z,9.68
2018-04-28T13:07:11.922Z,4.20
2018-04-28T13:09:40.255Z,6.90
2018-04-28T13:12:09.388Z,4.25
2018-04-28T13:14:37.744Z,5.28
2018-04-28T13:17:06.863Z,3.40
2018-04-28T13:19:35.242Z,5.45
2018-04-28T13:22:03.592Z,5.62
2018-04-28T13:24:32.734Z,6.40
2018-04-28T13:27:01.157Z,4.68
2018-04-28T13:29:29.461Z,4.70
2018-04-28T13:31:59.381Z,6.37
2018-04-28T13:34:27.783Z,6.35
2018-04-28T13:36:56.190Z,7.22
2018-04-28T13:39:24.549Z,4.55
2018-04-28T13:41:52.903Z,7.43
2018-04-28T13:44:21.241Z,5.00
2018-04-28T13:46:49.586Z,5.03
2018-04-28T13:49:17.941Z,4.87
2018-04-28T13:51:46.913Z,3.67
2018-04-28T13:54:15.316Z,6.20
2018-04-28T13:56:43.697Z,5.17
2018-04-28T13:59:12.043Z,4.77
2018-04-28T14:01:40.397Z,2.73
2018-04-28T14:04:08.726Z,3.93
2018-04-28T14:06:37.320Z,6.90
2018-04-28T14:09:06.026Z,2.60
2018-04-28T14:11:34.511Z,3.17
2018-04-28T14:14:03.136Z,3.77
2018-04-28T14:16:31.582Z,6.33
2018-04-28T14:18:59.927Z,5.05
2018-04-28T14:21:28.269Z,3.93
2018-04-28T14:23:56.620Z,2.87
2018-04-28T14:26:24.964Z,5.57
2018-04-28T14:28:53.452Z,3.10
2018-04-28T14:31:21.914Z,4.13
2018-04-28T14:33:51.066Z,4.60
2018-04-28T14:36:19.412Z,2.90
2018-04-28T14:38:47.756Z,4.00
2018-04-28T14:41:16.909Z,6.17
2018-04-28T14:43:45.246Z,5.00
2018-04-28T14:46:13.687Z,4.67
2018-04-28T14:48:41.955Z,4.93
2018-04-28T14:51:10.438Z,5.10
2018-04-28T14:53:38.897Z,4.00
2018-04-28T14:56:07.259Z,3.87
2018-04-28T14:58:35.678Z,3.53
2018-04-28T15:01:04.087Z,5.63
2018-04-28T15:03:33.194Z,4.90
2018-04-28T15:06:02.331Z,4.77
2018-04-28T15:08:30.712Z,3.67
2018-04-28T15:10:59.052Z,4.60
2018-04-28T15:13:28.176Z,4.07
2018-04-28T15:15:56.515Z,5.53
2018-04-28T15:18:24.930Z,5.80
2018-04-28T15:20:53.323Z,5.10
2018-04-28T15:23:21.793Z,5.00
2018-04-28T15:25:50.274Z,4.87
2018-04-28T15:28:18.733Z,4.37
2018-04-28T15:30:47.052Z,7.23
2018-04-28T15:33:15.394Z,6.30
2018-04-28T15:35:43.833Z,3.37
2018-04-28T15:38:13.228Z,3.73
2018-04-28T15:40:41.581Z,3.93
2018-04-28T15:43:09.929Z,5.30
2018-04-28T15:45:39.062Z,4.43
2018-04-28T15:48:07.407Z,6.37
2018-04-28T15:50:36.507Z,4.93
2018-04-28T15:53:04.860Z,3.67
2018-04-28T15:55:33.295Z,4.73
2018-04-28T15:58:01.638Z,4.30
2018-04-28T16:00:31.506Z,3.50
2018-04-28T16:03:00.077Z,3.87
2018-04-28T16:05:28.435Z,3.53
2018-04-28T16:07:56.844Z,3.33
2018-04-28T16:10:25.171Z,4.80
2018-04-28T16:12:53.716Z,5.77
2018-04-28T16:15:22.059Z,4.10
2018-04-28T16:17:50.531Z,6.30
2018-04-28T16:20:18.888Z,3.33
2018-04-28T16:22:47.310Z,4.20
2018-04-28T16:25:15.929Z,3.63
2018-04-28T16:27:44.305Z,3.43
2018-04-28T16:30:12.676Z,3.50
2018-04-28T16:32:41.111Z,3.90
2018-04-28T16:35:09.507Z,6.07
2018-04-28T16:37:37.905Z,5.60
2018-04-28T16:40:06.342Z,5.07
2018-04-28T16:42:34.706Z,2.10
2018-04-28T16:45:04.649Z,4.63
2018-04-28T16:47:33.007Z,6.30
2018-04-28T16:50:02.141Z,3.57
2018-04-28T16:52:30.491Z,3.87
2018-04-28T16:54:59.832Z,3.53
2018-04-28T16:57:28.201Z,4.33
2018-04-28T16:59:56.683Z,7.00
2018-04-28T17:02:25.079Z,11.50
2018-04-28T17:04:53.545Z,5.60
2018-04-28T17:07:21.949Z,6.47
2018-04-28T17:09:50.281Z,6.23
2018-04-28T17:12:18.784Z,6.20
2018-04-28T17:14:47.276Z,7.20
2018-04-28T17:17:15.757Z,4.00
2018-04-28T17:19:44.064Z,5.37
2018-04-28T17:22:12.464Z,5.73
2018-04-28T17:24:40.788Z,6.40
2018-04-28T17:27:09.169Z,4.23
2018-04-28T17:29:37.536Z,5.10
2018-04-28T17:32:05.872Z,7.23
2018-04-28T17:34:34.372Z,4.47
2018-04-28T17:37:03.482Z,2.93
2018-04-28T17:39:31.968Z,6.27
2018-04-28T17:42:01.064Z,4.47
2018-04-28T17:44:29.423Z,4.87
2018-04-28T17:46:58.698Z,5.40
2018-04-28T17:49:27.037Z,3.77
2018-04-28T17:51:55.378Z,5.77
2018-04-28T17:54:23.986Z,6.67
2018-04-28T17:56:52.357Z,5.70
2018-04-28T17:59:21.279Z,5.67
2018-04-28T18:01:49.671Z,5.00
2018-04-28T18:04:18.030Z,5.57
2018-04-28T18:06:46.409Z,4.33
2018-04-28T18:09:14.850Z,7.13
2018-04-28T18:11:43.208Z,5.60
2018-04-28T18:14:11.573Z,6.23
2018-04-28T18:16:39.914Z,6.27
2018-04-28T18:19:08.278Z,5.43
2018-04-28T18:21:36.639Z,7.90
2018-04-28T18:24:05.048Z,5.50
2018-04-28T18:26:33.403Z,7.00
2018-04-28T18:29:02.112Z,7.80
2018-04-28T18:31:30.729Z,5.50
2018-04-28T18:33:59.106Z,5.83
2018-04-28T18:36:27.464Z,7.30
2018-04-28T18:38:55.869Z,7.67
2018-04-28T18:41:24.212Z,7.20
2018-04-28T18:43:52.547Z,6.57
2018-04-28T18:46:21.105Z,11.60
2018-04-28T18:48:49.469Z,5.57
2018-04-28T18:51:18.072Z,4.77
2018-04-28T18:53:46.420Z,7.73
2018-04-28T18:56:14.835Z,4.03
2018-04-28T18:58:43.255Z,5.97
2018-04-28T19:01:11.782Z,6.33
2018-04-28T19:03:40.220Z,4.90
2018-04-28T19:06:08.575Z,6.53
2018-04-28T19:08:37.028Z,5.47
2018-04-28T19:11:05.404Z,5.33
2018-04-28T19:13:33.957Z,5.57
2018-04-28T19:16:03.192Z,7.37
2018-04-28T19:18:31.599Z,8.07
2018-04-28T19:21:00.795Z,7.20
2018-04-28T19:23:29.210Z,7.87
2018-04-28T19:25:58.316Z,9.43
2018-04-28T19:28:26.689Z,7.60
2018-04-28T19:30:55.104Z,6.77
2018-04-28T19:33:23.485Z,4.23
2018-04-28T19:35:51.849Z,5.23
2018-04-28T19:38:20.412Z,6.77
2018-04-28T19:40:48.828Z,11.87
2018-04-28T19:43:17.307Z,10.40
2018-04-28T19:45:45.669Z,9.80
2018-04-28T19:48:14.052Z,6.13
2018-04-28T19:50:42.474Z,7.43
2018-04-28T19:53:10.834Z,5.70
2018-04-28T19:55:39.228Z,6.03
2018-04-28T19:58:07.559Z,6.07
2018-04-28T20:00:35.947Z,9.03
2018-04-28T20:03:04.964Z,6.53
2018-04-28T20:05:34.129Z,8.63
2018-04-28T20:08:02.910Z,5.70
2018-04-28T20:10:31.469Z,5.27
2018-04-28T20:12:59.908Z,9.73
2018-04-28T20:15:28.314Z,8.03
2018-04-28T20:17:56.681Z,8.30
2018-04-28T20:20:25.119Z,8.23
2018-04-28T20:23:06.045Z,9.70
2018-04-28T20:25:34.389Z,10.30
2018-04-28T20:28:02.834Z,12.03
2018-04-28T20:30:32.040Z,9.77
2018-04-28T20:33:01.176Z,8.10
2018-04-28T20:35:29.697Z,10.17
2018-04-28T20:37:58.097Z,13.80
2018-04-28T20:40:27.289Z,12.77
2018-04-28T20:42:56.437Z,11.00
2018-04-28T20:45:24.815Z,11.70
2018-04-28T20:47:53.289Z,10.77
2018-04-28T20:50:21.659Z,9.67
2018-04-28T20:52:50.032Z,11.87
2018-04-28T20:55:18.408Z,53.30
2018-04-28T20:57:46.914Z,23.27
2018-04-28T21:00:15.296Z,14.83
2018-04-28T21:02:43.630Z,12.47
2018-04-28T21:05:12.054Z,12.07
2018-04-28T21:07:40.613Z,7.97
2018-04-28T21:10:09.896Z,7.23
2018-04-28T21:12:38.475Z,8.13
2018-04-28T21:15:07.596Z,10.23
2018-04-28T21:17:35.986Z,9.80
2018-04-28T21:20:04.342Z,11.43
2018-04-28T21:22:32.745Z,9.37
2018-04-28T21:25:01.331Z,9.20
2018-04-28T21:27:29.723Z,11.37
2018-04-28T21:29:58.095Z,8.13
2018-04-28T21:32:26.559Z,7.27
2018-04-28T21:34:55.638Z,9.27
2018-04-28T21:37:24.762Z,9.07
2018-04-28T21:39:53.217Z,15.70
2018-04-28T21:42:21.586Z,14.10
2018-04-28T21:44:50.812Z,8.90
2018-04-28T21:47:19.164Z,7.60
2018-04-28T21:49:47.746Z,10.53
2018-04-28T21:52:16.992Z,6.77
2018-04-28T21:54:45.567Z,7.40
2018-04-28T21:57:14.634Z,8.90
2018-04-28T21:59:43.116Z,7.60
2018-04-28T22:02:12.402Z,6.73
2018-04-28T22:04:40.748Z,9.20
2018-04-28T22:07:09.104Z,9.07
2018-04-28T22:09:37.746Z,6.93
2018-04-28T22:12:06.112Z,7.87
2018-04-28T22:14:35.071Z,6.27
2018-04-28T22:17:03.443Z,5.70
2018-04-28T22:19:31.837Z,7.87
2018-04-28T22:22:00.160Z,6.63
2018-04-28T22:24:29.384Z,6.07
2018-04-28T22:26:57.761Z,6.77
2018-04-28T22:29:26.143Z,7.17
2018-04-28T22:31:55.887Z,7.90
2018-04-28T22:34:24.229Z,7.20
2018-04-28T22:36:52.589Z,8.73
2018-04-28T22:39:21.740Z,6.50
2018-04-28T22:41:50.082Z,6.63
2018-04-28T22:44:18.488Z,9.00
2018-04-28T22:46:46.827Z,7.93
2018-04-28T22:49:16.441Z,9.03
2018-04-28T22:51:45.571Z,8.27
2018-04-28T22:54:13.921Z,8.37
2018-04-28T22:56:43.357Z,8.90
2018-04-28T22:59:11.699Z,6.60
2018-04-28T23:01:40.849Z,7.77
2018-04-28T23:04:09.215Z,5.73
2018-04-28T23:06:37.598Z,9.03
2018-04-28T23:09:05.963Z,9.03
2018-04-28T23:11:34.351Z,9.03
2018-04-28T23:14:02.787Z,7.57
2018-04-28T23:16:31.930Z,7.97
2018-04-28T23:19:00.331Z,8.80
2018-04-28T23:21:28.796Z,10.17
2018-04-28T23:23:57.154Z,8.87
2018-04-28T23:26:25.496Z,7.53
2018-04-28T23:28:53.945Z,9.63
2018-04-28T23:31:22.335Z,10.20
2018-04-28T23:33:51.579Z,8.80
2018-04-28T23:36:20.809Z,10.53
2018-04-28T23:38:49.163Z,10.13
2018-04-28T23:41:17.526Z,11.33
2018-04-28T23:43:46.740Z,12.43
2018-04-28T23:46:15.138Z,9.37
2018-04-28T23:48:44.148Z,12.90
2018-04-28T23:51:12.510Z,10.80
2018-04-28T23:53:40.881Z,11.40
2018-04-28T23:56:09.348Z,11.87
2018-04-28T23:58:37.757Z,13.27
